createdAt,value
2018-09-14T00:01:34.795Z,8.97
2018-09-14T00:04:01.912Z,7.83
2018-09-14T00:06:29.037Z,9.53
2018-09-14T00:08:56.164Z,8.27
2018-09-14T00:11:23.288Z,8.13
2018-09-14T00:13:50.454Z,14.40
2018-09-14T00:16:17.591Z,9.53
2018-09-14T00:18:44.712Z,10.80
2018-09-14T00:21:11.848Z,9.10
2018-09-14T00:23:38.980Z,8.30
2018-09-14T00:26:06.168Z,10.40
2018-09-14T00:28:33.301Z,9.17
2018-09-14T00:31:00.460Z,8.50
2018-09-14T00:33:27.619Z,9.07
2018-09-14T00:35:54.752Z,8.87
2018-09-14T00:38:21.886Z,8.07
2018-09-14T00:40:49.005Z,10.00
2018-09-14T00:43:16.151Z,8.50
2018-09-14T00:45:43.305Z,8.93
2018-09-14T00:48:10.712Z,10.90
2018-09-14T00:50:37.828Z,8.47
2018-09-14T00:53:04.969Z,9.40
2018-09-14T00:55:32.086Z,9.33
2018-09-14T00:57:59.208Z,10.13
2018-09-14T01:00:26.339Z,8.73
2018-09-14T01:02:53.464Z,7.47
2018-09-14T01:05:20.592Z,7.00
2018-09-14T01:07:47.761Z,8.90
2018-09-14T01:10:14.897Z,10.83
2018-09-14T01:12:42.038Z,7.80
2018-09-14T01:15:09.164Z,9.30
2018-09-14T01:17:36.296Z,7.70
2018-09-14T01:20:03.548Z,10.57
2018-09-14T01:22:30.736Z,8.83
2018-09-14T01:24:57.845Z,8.77
2018-09-14T01:27:24.972Z,7.70
2018-09-14T01:29:52.100Z,9.43
2018-09-14T01:32:19.251Z,8.67
2018-09-14T01:34:46.369Z,10.23
2018-09-14T01:37:13.488Z,10.73
2018-09-14T01:39:40.596Z,9.73
2018-09-14T01:42:07.716Z,11.80
2018-09-14T01:44:34.849Z,11.17
2018-09-14T01:47:01.979Z,10.10
2018-09-14T01:49:29.099Z,9.90
2018-09-14T01:51:56.264Z,12.97
2018-09-14T01:54:23.393Z,9.73
2018-09-14T01:56:50.548Z,10.90
2018-09-14T01:59:17.692Z,12.43
2018-09-14T02:01:44.819Z,14.40
2018-09-14T02:04:11.957Z,11.27
2018-09-14T02:06:39.165Z,9.97
2018-09-14T02:09:08.241Z,10.30
2018-09-14T02:11:35.412Z,11.77
2018-09-14T02:14:02.577Z,12.30
2018-09-14T02:16:29.733Z,11.37
2018-09-14T02:18:56.953Z,10.30
2018-09-14T02:21:24.076Z,11.47
2018-09-14T02:23:51.200Z,11.73
2018-09-14T02:26:18.300Z,14.10
2018-09-14T02:28:45.410Z,14.90
2018-09-14T02:31:12.528Z,12.83
2018-09-14T02:33:39.642Z,13.37
2018-09-14T02:36:06.780Z,16.20
2018-09-14T02:38:33.925Z,11.80
2018-09-14T02:41:01.066Z,12.57
2018-09-14T02:43:28.200Z,12.93
2018-09-14T02:45:55.315Z,12.53
2018-09-14T02:48:22.520Z,12.53
2018-09-14T02:50:49.668Z,13.93
2018-09-14T02:53:16.827Z,15.10
2018-09-14T02:55:43.985Z,14.70
2018-09-14T02:58:11.104Z,12.23
2018-09-14T03:00:38.253Z,12.67
2018-09-14T03:03:05.396Z,12.10
2018-09-14T03:05:32.692Z,13.33
2018-09-14T03:07:59.825Z,12.73
2018-09-14T03:10:26.980Z,9.73
2018-09-14T03:12:54.113Z,13.23
2018-09-14T03:15:21.260Z,12.10
2018-09-14T03:17:48.392Z,11.07
2018-09-14T03:20:15.525Z,13.83
2018-09-14T03:22:42.668Z,13.03
2018-09-14T03:25:09.788Z,14.07
2018-09-14T03:27:36.904Z,13.57
2018-09-14T03:30:04.124Z,15.47
2018-09-14T03:32:31.245Z,14.50
2018-09-14T03:34:58.356Z,12.37
2018-09-14T03:37:25.453Z,16.07
2018-09-14T03:39:52.572Z,12.97
2018-09-14T03:42:19.736Z,11.47
2018-09-14T03:44:46.896Z,11.70
2018-09-14T03:47:14.030Z,11.73
2018-09-14T03:49:41.154Z,11.87
2018-09-14T03:52:08.292Z,12.27
2018-09-14T03:54:35.410Z,13.70
2018-09-14T03:57:04.519Z,13.43
2018-09-14T03:59:33.565Z,12.40
2018-09-14T04:02:00.688Z,11.70
2018-09-14T04:04:27.832Z,14.90
2018-09-14T04:06:54.981Z,11.23
2018-09-14T04:09:22.121Z,10.37
2018-09-14T04:11:49.251Z,12.63
2018-09-14T04:14:16.369Z,11.63
2018-09-14T04:16:43.493Z,11.63
2018-09-14T04:19:10.624Z,12.87
2018-09-14T04:21:37.740Z,11.40
2018-09-14T04:24:04.848Z,11.37
2018-09-14T04:26:31.948Z,10.00
2018-09-14T04:28:59.779Z,12.10
2018-09-14T04:31:27.075Z,10.80
2018-09-14T04:33:54.252Z,10.10
2018-09-14T04:36:21.390Z,12.13
2018-09-14T04:38:48.517Z,13.77
2018-09-14T04:41:15.680Z,12.63
2018-09-14T04:43:43.092Z,10.77
2018-09-14T04:46:10.240Z,13.40
2018-09-14T04:48:37.388Z,11.43
2018-09-14T04:51:04.513Z,9.33
2018-09-14T04:53:31.637Z,10.70
2018-09-14T04:55:58.831Z,11.00
2018-09-14T04:58:25.973Z,12.13
2018-09-14T05:00:53.101Z,12.30
2018-09-14T05:03:20.382Z,10.23
2018-09-14T05:05:47.476Z,10.80
2018-09-14T05:08:14.634Z,11.20
2018-09-14T05:10:41.760Z,12.53
2018-09-14T05:13:08.876Z,11.87
2018-09-14T05:15:36.009Z,12.03
2018-09-14T05:18:04.256Z,10.03
2018-09-14T05:20:31.715Z,11.00
2018-09-14T05:22:59.158Z,12.37
2018-09-14T05:25:26.313Z,10.30
2018-09-14T05:27:53.648Z,15.00
2018-09-14T05:30:20.885Z,12.83
2018-09-14T05:32:48.061Z,12.10
2018-09-14T05:35:15.209Z,11.03
2018-09-14T05:37:42.345Z,10.57
2018-09-14T05:40:09.493Z,13.13
2018-09-14T05:42:36.633Z,11.80
2018-09-14T05:45:03.773Z,14.13
2018-09-14T05:47:30.925Z,11.37
2018-09-14T05:49:58.068Z,11.43
2018-09-14T05:52:25.204Z,9.93
2018-09-14T05:54:52.337Z,11.00
2018-09-14T05:57:19.510Z,11.50
2018-09-14T05:59:46.720Z,10.37
2018-09-14T06:02:13.864Z,11.00
2018-09-14T06:04:41.037Z,11.00
2018-09-14T06:07:08.180Z,11.73
2018-09-14T06:09:35.343Z,11.77
2018-09-14T06:12:02.488Z,12.23
2018-09-14T06:14:29.704Z,12.90
2018-09-14T06:16:56.883Z,11.07
2018-09-14T06:19:23.988Z,11.50
2018-09-14T06:21:51.152Z,16.37
2018-09-14T06:24:18.293Z,12.00
2018-09-14T06:26:45.436Z,11.17
2018-09-14T06:29:12.604Z,11.63
2018-09-14T06:31:39.741Z,12.43
2018-09-14T06:34:06.916Z,14.07
2018-09-14T06:36:34.056Z,11.50
2018-09-14T06:39:01.262Z,12.03
2018-09-14T06:41:28.417Z,12.57
2018-09-14T06:43:55.563Z,12.43
2018-09-14T06:46:22.733Z,11.10
2018-09-14T06:48:49.864Z,11.20
2018-09-14T06:51:17.004Z,11.53
2018-09-14T06:53:44.142Z,13.30
2018-09-14T06:56:11.288Z,12.43
2018-09-14T06:58:38.425Z,13.70
2018-09-14T07:01:05.560Z,13.17
2018-09-14T07:03:32.792Z,14.90
2018-09-14T07:05:59.992Z,18.47
2018-09-14T07:08:27.110Z,23.63
2018-09-14T07:10:54.249Z,20.87
2018-09-14T07:13:21.475Z,29.37
2018-09-14T07:15:48.620Z,26.83
2018-09-14T07:18:15.737Z,29.47
2018-09-14T07:20:42.856Z,29.97
2018-09-14T07:23:09.971Z,26.73
2018-09-14T07:25:37.158Z,30.87
2018-09-14T07:28:04.853Z,27.70
2018-09-14T07:30:32.024Z,28.63
2018-09-14T07:32:59.148Z,27.17
2018-09-14T07:35:26.326Z,24.80
2018-09-14T07:37:53.452Z,30.67
2018-09-14T07:40:20.584Z,25.87
2018-09-14T07:42:47.705Z,23.87
2018-09-14T07:45:14.860Z,24.87
2018-09-14T07:47:42.004Z,25.63
2018-09-14T07:50:09.185Z,29.37
2018-09-14T07:52:36.300Z,27.07
2018-09-14T07:55:03.648Z,28.40
2018-09-14T07:57:30.759Z,31.90
2018-09-14T07:59:57.940Z,33.53
2018-09-14T08:02:25.104Z,28.97
2018-09-14T08:04:52.306Z,29.63
2018-09-14T08:07:19.447Z,31.40
2018-09-14T08:09:46.586Z,34.10
2018-09-14T08:12:13.724Z,27.50
2018-09-14T08:14:40.844Z,31.17
2018-09-14T08:17:07.963Z,29.70
2018-09-14T08:19:35.073Z,30.60
2018-09-14T08:22:02.273Z,30.17
2018-09-14T08:24:29.296Z,30.33
2018-09-14T08:26:56.509Z,32.63
2018-09-14T08:29:23.596Z,31.50
2018-09-14T08:31:50.721Z,27.43
2018-09-14T08:34:17.844Z,28.37
2018-09-14T08:36:44.969Z,28.83
2018-09-14T08:39:12.623Z,28.70
2018-09-14T08:41:39.918Z,30.90
2018-09-14T08:44:07.072Z,30.33
2018-09-14T08:46:34.380Z,31.37
2018-09-14T08:49:01.640Z,26.57
2018-09-14T08:51:28.773Z,30.20
2018-09-14T08:53:55.917Z,29.30
2018-09-14T08:56:23.079Z,31.17
2018-09-14T08:58:50.216Z,28.67
2018-09-14T09:01:17.361Z,24.80
2018-09-14T09:03:44.531Z,24.53
2018-09-14T09:06:11.669Z,23.17
2018-09-14T09:08:38.808Z,24.43
2018-09-14T09:11:05.940Z,21.83
2018-09-14T09:13:33.072Z,21.93
2018-09-14T09:16:00.217Z,19.57
2018-09-14T09:18:27.347Z,22.57
2018-09-14T09:20:54.484Z,20.03
2018-09-14T09:23:21.628Z,19.10
2018-09-14T09:25:48.746Z,20.77
2018-09-14T09:28:15.881Z,21.73
2018-09-14T09:30:43.024Z,17.47
2018-09-14T09:33:10.164Z,16.73
2018-09-14T09:35:37.280Z,22.90
2018-09-14T09:38:04.400Z,17.03
2018-09-14T09:40:31.514Z,17.63
2018-09-14T09:42:58.678Z,15.80
2018-09-14T09:45:25.781Z,16.90
2018-09-14T09:47:52.936Z,16.37
2018-09-14T09:50:20.076Z,13.40
2018-09-14T09:52:47.223Z,19.23
2018-09-14T09:55:14.345Z,17.63
2018-09-14T09:57:41.933Z,15.07
2018-09-14T10:02:16.140Z,18.20
2018-09-14T10:06:54.119Z,15.37
2018-09-14T10:09:21.273Z,16.13
2018-09-14T10:11:48.438Z,15.93
2018-09-14T10:14:15.639Z,14.07
2018-09-14T10:16:42.736Z,17.07
2018-09-14T10:19:09.874Z,14.37
2018-09-14T10:21:37.019Z,16.67
2018-09-14T10:24:04.124Z,15.23
2018-09-14T10:26:31.257Z,17.43
2018-09-14T10:28:58.444Z,13.50
2018-09-14T10:31:25.550Z,12.20
2018-09-14T10:33:52.711Z,9.00
2018-09-14T10:36:19.846Z,10.50
2018-09-14T10:38:46.969Z,10.07
2018-09-14T10:41:14.093Z,9.53
2018-09-14T10:43:41.256Z,11.07
2018-09-14T10:46:08.461Z,11.57
2018-09-14T10:48:35.599Z,10.23
2018-09-14T10:51:02.753Z,9.70
2018-09-14T10:53:29.888Z,8.00
2018-09-14T10:55:57.020Z,8.33
2018-09-14T10:58:24.148Z,8.43
2018-09-14T11:00:51.355Z,7.10
2018-09-14T11:03:18.436Z,10.97
2018-09-14T11:05:45.551Z,9.53
2018-09-14T11:08:12.668Z,11.77
2018-09-14T11:10:39.788Z,7.90
2018-09-14T11:13:06.959Z,14.33
2018-09-14T11:15:34.025Z,8.30
2018-09-14T11:18:01.178Z,12.27
2018-09-14T11:20:28.947Z,11.50
2018-09-14T11:22:56.076Z,7.77
2018-09-14T11:25:23.424Z,8.33
2018-09-14T11:27:50.467Z,12.47
2018-09-14T11:30:17.574Z,11.50
2018-09-14T11:32:44.721Z,10.43
2018-09-14T11:35:11.856Z,10.43
2018-09-14T11:37:39.046Z,7.20
2018-09-14T11:40:06.171Z,8.87
2018-09-14T11:42:33.313Z,7.70
2018-09-14T11:45:00.432Z,9.20
2018-09-14T11:47:27.552Z,7.00
2018-09-14T11:49:55.116Z,8.73
2018-09-14T11:52:22.599Z,8.63
2018-09-14T11:54:49.760Z,8.20
2018-09-14T11:57:16.860Z,11.30
2018-09-14T11:59:43.968Z,10.53
2018-09-14T12:02:11.096Z,7.13
2018-09-14T12:04:38.218Z,7.40
2018-09-14T12:07:05.312Z,7.97
2018-09-14T12:09:32.437Z,8.30
2018-09-14T12:11:59.527Z,8.90
2018-09-14T12:14:26.612Z,7.80
2018-09-14T12:16:53.740Z,10.23
2018-09-14T12:19:20.853Z,9.17
2018-09-14T12:21:47.967Z,8.50
2018-09-14T12:24:15.056Z,12.60
2018-09-14T12:26:42.164Z,11.30
2018-09-14T12:29:09.256Z,9.17
2018-09-14T12:31:36.367Z,10.20
2018-09-14T12:34:03.502Z,9.63
2018-09-14T12:36:30.607Z,10.47
2018-09-14T12:38:57.704Z,9.33
2018-09-14T12:41:24.916Z,11.47
2018-09-14T12:43:52.626Z,10.47
2018-09-14T12:46:19.721Z,9.27
2018-09-14T12:48:47.061Z,10.33
2018-09-14T12:51:14.147Z,7.43
2018-09-14T12:53:41.444Z,7.87
2018-09-14T12:56:08.525Z,7.60
2018-09-14T12:58:35.640Z,6.67
2018-09-14T13:01:02.781Z,6.63
2018-09-14T13:03:29.892Z,6.37
2018-09-14T13:05:56.980Z,6.47
2018-09-14T13:08:24.128Z,6.77
2018-09-14T13:10:51.229Z,7.27
2018-09-14T13:13:18.651Z,4.80
2018-09-14T13:15:45.816Z,5.00
2018-09-14T13:18:12.916Z,4.60
2018-09-14T13:20:40.056Z,3.77
2018-09-14T13:23:07.192Z,3.53
2018-09-14T13:25:34.284Z,3.67
2018-09-14T13:28:01.435Z,4.03
2018-09-14T13:30:28.507Z,4.53
2018-09-14T13:32:55.600Z,3.60
2018-09-14T13:35:23.612Z,5.33
2018-09-14T13:37:51.433Z,5.83
2018-09-14T13:40:18.824Z,6.43
2018-09-14T13:42:45.912Z,4.17
2018-09-14T13:45:13.021Z,7.33
2018-09-14T13:47:40.175Z,4.93
2018-09-14T13:50:07.301Z,3.87
2018-09-14T13:52:34.412Z,5.73
2018-09-14T13:55:01.534Z,4.80
2018-09-14T13:57:28.637Z,6.30
2018-09-14T13:59:55.756Z,4.20
2018-09-14T14:02:22.908Z,3.90
2018-09-14T14:04:50.010Z,3.80
2018-09-14T14:07:17.132Z,6.23
2018-09-14T14:09:44.323Z,5.37
2018-09-14T14:12:11.380Z,4.23
2018-09-14T14:14:38.492Z,3.57
2018-09-14T14:17:05.658Z,5.57
2018-09-14T14:19:32.728Z,8.77
2018-09-14T14:21:59.892Z,8.00
2018-09-14T14:24:26.961Z,5.20
2018-09-14T14:26:54.068Z,4.77
2018-09-14T14:29:21.169Z,6.17
2018-09-14T14:31:48.251Z,8.30
2018-09-14T14:34:15.349Z,6.60
2018-09-14T14:36:42.449Z,6.40
2018-09-14T14:39:10.029Z,4.77
2018-09-14T14:41:37.164Z,6.27
2018-09-14T14:44:04.280Z,5.07
2018-09-14T14:46:31.430Z,8.50
2018-09-14T14:48:58.572Z,7.27
2018-09-14T14:51:25.659Z,6.10
2018-09-14T14:53:52.778Z,7.40
2018-09-14T14:56:19.857Z,5.83
2018-09-14T14:58:47.020Z,5.10
2018-09-14T15:01:14.112Z,6.03
2018-09-14T15:03:41.220Z,5.20
2018-09-14T15:06:08.331Z,4.80
2018-09-14T15:08:35.440Z,6.60
2018-09-14T15:11:02.561Z,8.70
2018-09-14T15:13:29.755Z,9.33
2018-09-14T15:15:56.806Z,6.13
2018-09-14T15:18:23.904Z,8.27
2018-09-14T15:20:51.047Z,7.80
2018-09-14T15:23:18.188Z,9.50
2018-09-14T15:25:45.272Z,5.57
2018-09-14T15:28:12.392Z,5.90
2018-09-14T15:30:39.486Z,6.17
2018-09-14T15:33:06.596Z,8.23
2018-09-14T15:35:34.180Z,7.10
2018-09-14T15:38:01.311Z,5.57
2018-09-14T15:40:28.445Z,7.53
2018-09-14T15:42:55.560Z,7.77
2018-09-14T15:45:22.653Z,6.53
2018-09-14T15:47:49.769Z,8.83
2018-09-14T15:50:16.876Z,9.10
2018-09-14T15:52:44.057Z,7.10
2018-09-14T15:55:11.168Z,5.00
2018-09-14T15:57:38.298Z,6.43
2018-09-14T16:00:05.669Z,8.63
2018-09-14T16:02:32.784Z,5.93
2018-09-14T16:04:59.888Z,6.57
2018-09-14T16:07:26.976Z,8.47
2018-09-14T16:09:54.092Z,7.00
2018-09-14T16:12:21.998Z,9.23
2018-09-14T16:14:49.133Z,7.27
2018-09-14T16:17:16.252Z,6.77
2018-09-14T16:19:43.374Z,10.67
2018-09-14T16:22:10.493Z,7.67
2018-09-14T16:24:37.608Z,8.30
2018-09-14T16:27:04.758Z,8.57
2018-09-14T16:29:31.871Z,12.20
2018-09-14T16:31:58.972Z,7.00
2018-09-14T16:34:26.083Z,9.33
2018-09-14T16:36:53.186Z,9.93
2018-09-14T16:39:20.292Z,10.57
2018-09-14T16:41:47.394Z,7.33
2018-09-14T16:44:14.540Z,9.27
2018-09-14T16:46:41.664Z,8.67
2018-09-14T16:49:09.096Z,8.30
2018-09-14T16:51:36.270Z,10.13
2018-09-14T16:54:03.331Z,11.40
2018-09-14T16:56:30.444Z,12.97
2018-09-14T16:58:57.578Z,8.57
2018-09-14T17:01:24.690Z,8.97
2018-09-14T17:03:51.841Z,9.30
2018-09-14T17:06:18.940Z,9.23
2018-09-14T17:08:46.037Z,7.40
2018-09-14T17:11:13.193Z,12.03
2018-09-14T17:13:40.312Z,8.17
2018-09-14T17:16:07.440Z,9.80
2018-09-14T17:18:34.561Z,6.30
2018-09-14T17:21:01.685Z,8.83
2018-09-14T17:23:28.780Z,8.87
2018-09-14T17:25:55.892Z,6.97
2018-09-14T17:28:23.011Z,7.37
2018-09-14T17:30:50.667Z,7.43
2018-09-14T17:33:17.769Z,7.13
2018-09-14T17:35:44.866Z,10.03
2018-09-14T17:38:11.989Z,8.93
2018-09-14T17:40:39.072Z,6.27
2018-09-14T17:43:06.156Z,10.50
2018-09-14T17:45:33.260Z,6.37
2018-09-14T17:48:00.384Z,5.60
2018-09-14T17:50:27.482Z,9.50
2018-09-14T17:52:54.590Z,8.23
2018-09-14T17:55:21.721Z,9.00
2018-09-14T17:57:48.864Z,11.60
2018-09-14T18:00:15.976Z,10.10
2018-09-14T18:02:43.080Z,6.37
2018-09-14T18:05:10.224Z,11.53
2018-09-14T18:07:37.358Z,11.73
2018-09-14T18:10:04.909Z,7.10
2018-09-14T18:12:32.021Z,9.07
2018-09-14T18:14:59.141Z,7.23
2018-09-14T18:17:26.240Z,7.23
2018-09-14T18:19:53.340Z,7.73
2018-09-14T18:22:20.448Z,12.10
2018-09-14T18:24:47.555Z,6.60
2018-09-14T18:27:14.676Z,5.63
2018-09-14T18:29:41.771Z,9.17
2018-09-14T18:32:08.876Z,6.80
2018-09-14T18:34:35.985Z,8.60
2018-09-14T18:37:03.130Z,5.20
2018-09-14T18:39:30.284Z,7.27
2018-09-14T18:41:57.380Z,5.70
2018-09-14T18:44:24.537Z,7.10
2018-09-14T18:46:51.658Z,6.40
2018-09-14T18:49:18.813Z,8.70
2018-09-14T18:51:45.912Z,5.67
2018-09-14T18:54:13.031Z,5.97
2018-09-14T18:56:40.156Z,5.63
2018-09-14T18:59:07.285Z,6.80
2018-09-14T19:01:34.360Z,7.80
2018-09-14T19:04:01.483Z,5.60
2018-09-14T19:06:28.632Z,4.57
2018-09-14T19:08:55.801Z,4.90
2018-09-14T19:11:22.973Z,6.85
2018-09-14T19:13:50.069Z,5.83
2018-09-14T19:16:17.169Z,6.67
2018-09-14T19:18:44.536Z,5.37
2018-09-14T19:21:11.639Z,5.40
2018-09-14T19:23:39.032Z,7.53
2018-09-14T19:26:06.190Z,9.87
2018-09-14T19:28:33.398Z,5.03
2018-09-14T19:31:00.520Z,6.47
2018-09-14T19:33:27.640Z,7.20
2018-09-14T19:35:55.941Z,6.00
2018-09-14T19:38:23.038Z,7.40
2018-09-14T19:40:50.144Z,5.83
2018-09-14T19:43:17.291Z,5.63
2018-09-14T19:45:44.400Z,6.10
2018-09-14T19:48:11.570Z,6.17
2018-09-14T19:50:38.704Z,11.10
2018-09-14T19:53:05.948Z,9.63
2018-09-14T19:55:33.120Z,6.80
2018-09-14T19:58:00.233Z,6.67
2018-09-14T20:00:27.352Z,7.17
2018-09-14T20:02:54.575Z,4.73
2018-09-14T20:05:21.684Z,5.83
2018-09-14T20:07:48.769Z,6.23
2018-09-14T20:10:16.227Z,6.13
2018-09-14T20:12:43.324Z,6.13
2018-09-14T20:15:10.432Z,9.33
2018-09-14T20:17:37.545Z,7.40
2018-09-14T20:20:04.671Z,7.80
2018-09-14T20:22:31.773Z,8.10
2018-09-14T20:24:58.893Z,7.37
2018-09-14T20:27:26.040Z,7.27
2018-09-14T20:29:53.139Z,5.77
2018-09-14T20:32:20.244Z,5.77
2018-09-14T20:34:47.359Z,5.77
2018-09-14T20:37:14.491Z,6.47
2018-09-14T20:39:41.582Z,7.63
2018-09-14T20:42:08.733Z,4.23
2018-09-14T20:44:35.832Z,6.20
2018-09-14T20:47:03.036Z,3.63
2018-09-14T20:49:30.141Z,7.13
2018-09-14T20:51:57.228Z,5.23
2018-09-14T20:54:24.321Z,5.90
2018-09-14T20:56:51.436Z,4.87
2018-09-14T20:59:18.539Z,5.03
2018-09-14T21:01:46.073Z,7.50
2018-09-14T21:04:13.282Z,7.17
2018-09-14T21:06:40.337Z,5.30
2018-09-14T21:09:08.500Z,6.47
2018-09-14T21:11:35.605Z,6.87
2018-09-14T21:14:02.752Z,7.87
2018-09-14T21:16:29.882Z,3.17
2018-09-14T21:18:57.010Z,4.37
2018-09-14T21:21:24.153Z,7.17
2018-09-14T21:23:51.293Z,8.03
2018-09-14T21:26:18.380Z,5.03
2018-09-14T21:28:45.537Z,7.80
2018-09-14T21:31:12.669Z,4.20
2018-09-14T21:33:39.853Z,9.00
2018-09-14T21:36:06.921Z,8.80
2018-09-14T21:38:34.043Z,6.17
2018-09-14T21:41:01.144Z,6.67
2018-09-14T21:43:28.240Z,5.47
2018-09-14T21:45:55.340Z,6.90
2018-09-14T21:48:22.525Z,8.17
2018-09-14T21:50:49.539Z,6.73
2018-09-14T21:53:16.680Z,5.17
2018-09-14T21:55:43.811Z,5.30
2018-09-14T21:58:10.901Z,5.27
2018-09-14T22:00:43.821Z,6.13
2018-09-14T22:03:10.920Z,6.57
2018-09-14T22:05:38.004Z,4.73
2018-09-14T22:08:05.166Z,7.40
2018-09-14T22:10:32.296Z,4.97
2018-09-14T22:12:59.437Z,5.10
2018-09-14T22:15:26.549Z,7.43
2018-09-14T22:17:53.644Z,5.30
2018-09-14T22:20:20.744Z,7.13
2018-09-14T22:22:47.859Z,6.90
2018-09-14T22:25:14.988Z,5.10
2018-09-14T22:27:42.172Z,5.90
2018-09-14T22:30:12.921Z,7.13
2018-09-14T22:32:40.129Z,4.53
2018-09-14T22:35:07.268Z,6.07
2018-09-14T22:37:34.390Z,5.73
2018-09-14T22:40:01.492Z,4.93
2018-09-14T22:42:28.689Z,4.43
2018-09-14T22:44:55.780Z,7.23
2018-09-14T22:47:22.916Z,4.93
2018-09-14T22:49:50.024Z,5.50
2018-09-14T22:52:17.224Z,3.83
2018-09-14T22:54:44.341Z,5.13
2018-09-14T22:57:11.440Z,5.67
2018-09-14T22:59:38.590Z,4.40
2018-09-14T23:02:05.685Z,5.37
2018-09-14T23:04:32.832Z,4.77
2018-09-14T23:06:59.936Z,4.83
2018-09-14T23:09:27.018Z,6.87
2018-09-14T23:11:54.107Z,4.63
2018-09-14T23:14:21.198Z,6.37
2018-09-14T23:16:48.291Z,7.77
2018-09-14T23:19:15.396Z,5.53
2018-09-14T23:21:42.501Z,7.73
2018-09-14T23:24:09.612Z,4.63
2018-09-14T23:26:36.763Z,6.30
2018-09-14T23:29:03.859Z,8.63
2018-09-14T23:31:30.968Z,5.77
2018-09-14T23:33:58.040Z,6.40
2018-09-14T23:36:25.135Z,6.93
2018-09-14T23:38:52.318Z,6.07
2018-09-14T23:41:19.401Z,4.93
2018-09-14T23:43:46.511Z,5.87
2018-09-14T23:46:13.660Z,4.03
2018-09-14T23:48:40.770Z,6.87
2018-09-14T23:51:07.895Z,4.53
2018-09-14T23:53:35.004Z,6.03
2018-09-14T23:56:02.139Z,5.93
2018-09-14T23:58:29.248Z,4.53
